sensor_id;sensor_type;location;lat;lon;timestamp;P1;durP1;ratioP1;P2;durP2;ratioP2
16969;SDS011;8601;48.718;8.992;2023-04-24T00:01:59;1.50;;;1.40;;
16969;SDS011;8601;48.718;8.992;2023-04-24T00:04:26;2.53;;;1.43;;
16969;SDS011;8601;48.718;8.992;2023-04-24T00:06:53;1.30;;;1.20;;
16969;SDS011;8601;48.718;8.992;2023-04-24T00:09:22;1.50;;;1.40;;
16969;SDS011;8601;48.718;8.992;2023-04-24T00:11:49;2.33;;;1.50;;
16969;SDS011;8601;48.718;8.992;2023-04-24T00:14:16;1.20;;;1.10;;
16969;SDS011;8601;48.718;8.992;2023-04-24T00:16:42;2.20;;;1.53;;
16969;SDS011;8601;48.718;8.992;2023-04-24T00:19:11;2.07;;;1.30;;
16969;SDS011;8601;48.718;8.992;2023-04-24T00:21:38;2.37;;;1.00;;
16969;SDS011;8601;48.718;8.992;2023-04-24T00:24:05;1.60;;;1.30;;
16969;SDS011;8601;48.718;8.992;2023-04-24T00:26:34;2.33;;;1.10;;
16969;SDS011;8601;48.718;8.992;2023-04-24T00:29:00;1.50;;;1.20;;
16969;SDS011;8601;48.718;8.992;2023-04-24T00:31:27;1.87;;;1.20;;
16969;SDS011;8601;48.718;8.992;2023-04-24T00:33:54;1.27;;;1.00;;
16969;SDS011;8601;48.718;8.992;2023-04-24T00:36:24;2.50;;;1.10;;
16969;SDS011;8601;48.718;8.992;2023-04-24T00:38:52;1.20;;;1.10;;
16969;SDS011;8601;48.718;8.992;2023-04-24T00:41:18;3.13;;;1.50;;
16969;SDS011;8601;48.718;8.992;2023-04-24T00:43:46;1.33;;;1.03;;
16969;SDS011;8601;48.718;8.992;2023-04-24T00:46:14;1.40;;;1.00;;
16969;SDS011;8601;48.718;8.992;2023-04-24T00:48:41;1.73;;;1.40;;
16969;SDS011;8601;48.718;8.992;2023-04-24T00:51:09;1.43;;;1.00;;
16969;SDS011;8601;48.718;8.992;2023-04-24T00:53:38;2.50;;;1.13;;
16969;SDS011;8601;48.718;8.992;2023-04-24T00:56:05;1.20;;;1.10;;
16969;SDS011;8601;48.718;8.992;2023-04-24T00:58:32;2.07;;;1.50;;
16969;SDS011;8601;48.718;8.992;2023-04-24T01:00:59;1.57;;;0.97;;
16969;SDS011;8601;48.718;8.992;2023-04-24T01:03:28;1.57;;;1.00;;
16969;SDS011;8601;48.718;8.992;2023-04-24T01:05:56;1.17;;;1.10;;
16969;SDS011;8601;48.718;8.992;2023-04-24T01:08:24;1.40;;;1.10;;
16969;SDS011;8601;48.718;8.992;2023-04-24T01:10:54;1.77;;;1.33;;
16969;SDS011;8601;48.718;8.992;2023-04-24T01:13:23;1.87;;;1.17;;
16969;SDS011;8601;48.718;8.992;2023-04-24T01:15:50;2.37;;;1.27;;
16969;SDS011;8601;48.718;8.992;2023-04-24T01:18:17;1.23;;;1.10;;
16969;SDS011;8601;48.718;8.992;2023-04-24T01:20:44;1.73;;;1.00;;
16969;SDS011;8601;48.718;8.992;2023-04-24T01:23:13;2.40;;;1.40;;
16969;SDS011;8601;48.718;8.992;2023-04-24T01:25:40;2.10;;;1.30;;
16969;SDS011;8601;48.718;8.992;2023-04-24T01:28:07;3.27;;;1.73;;
16969;SDS011;8601;48.718;8.992;2023-04-24T01:30:34;2.60;;;1.00;;
16969;SDS011;8601;48.718;8.992;2023-04-24T01:33:02;1.60;;;1.37;;
16969;SDS011;8601;48.718;8.992;2023-04-24T01:35:30;1.37;;;1.10;;
16969;SDS011;8601;48.718;8.992;2023-04-24T01:37:57;2.23;;;1.30;;
16969;SDS011;8601;48.718;8.992;2023-04-24T01:40:26;1.43;;;1.23;;
16969;SDS011;8601;48.718;8.992;2023-04-24T01:42:53;2.27;;;1.40;;
16969;SDS011;8601;48.718;8.992;2023-04-24T01:45:20;1.93;;;1.33;;
16969;SDS011;8601;48.718;8.992;2023-04-24T01:47:47;2.33;;;1.40;;
16969;SDS011;8601;48.718;8.992;2023-04-24T01:50:15;1.33;;;1.20;;
16969;SDS011;8601;48.718;8.992;2023-04-24T01:52:42;1.30;;;1.00;;
16969;SDS011;8601;48.718;8.992;2023-04-24T01:55:09;1.70;;;1.40;;
16969;SDS011;8601;48.718;8.992;2023-04-24T01:57:38;1.57;;;1.37;;
16969;SDS011;8601;48.718;8.992;2023-04-24T02:00:06;2.40;;;1.20;;
16969;SDS011;8601;48.718;8.992;2023-04-24T02:02:35;1.20;;;1.13;;
16969;SDS011;8601;48.718;8.992;2023-04-24T02:05:01;1.43;;;1.10;;
16969;SDS011;8601;48.718;8.992;2023-04-24T02:07:28;1.90;;;1.50;;
16969;SDS011;8601;48.718;8.992;2023-04-24T02:09:55;1.93;;;1.47;;
16969;SDS011;8601;48.718;8.992;2023-04-24T02:12:23;1.57;;;1.20;;
16969;SDS011;8601;48.718;8.992;2023-04-24T02:14:52;1.87;;;1.50;;
16969;SDS011;8601;48.718;8.992;2023-04-24T02:17:18;1.93;;;1.10;;
16969;SDS011;8601;48.718;8.992;2023-04-24T02:19:45;2.10;;;1.10;;
16969;SDS011;8601;48.718;8.992;2023-04-24T02:22:12;1.63;;;1.20;;
16969;SDS011;8601;48.718;8.992;2023-04-24T02:24:39;2.00;;;1.30;;
16969;SDS011;8601;48.718;8.992;2023-04-24T02:27:06;1.43;;;1.10;;
16969;SDS011;8601;48.718;8.992;2023-04-24T02:29:33;1.30;;;1.20;;
16969;SDS011;8601;48.718;8.992;2023-04-24T02:32:01;2.50;;;1.40;;
16969;SDS011;8601;48.718;8.992;2023-04-24T02:34:28;1.40;;;1.30;;
16969;SDS011;8601;48.718;8.992;2023-04-24T02:36:55;2.57;;;1.73;;
16969;SDS011;8601;48.718;8.992;2023-04-24T02:39:22;1.83;;;1.37;;
16969;SDS011;8601;48.718;8.992;2023-04-24T02:41:49;3.70;;;1.43;;
16969;SDS011;8601;48.718;8.992;2023-04-24T02:44:16;2.93;;;1.80;;
16969;SDS011;8601;48.718;8.992;2023-04-24T02:46:43;1.67;;;1.57;;
16969;SDS011;8601;48.718;8.992;2023-04-24T02:49:11;1.50;;;1.40;;
16969;SDS011;8601;48.718;8.992;2023-04-24T02:51:38;1.60;;;1.50;;
16969;SDS011;8601;48.718;8.992;2023-04-24T02:54:12;2.33;;;1.20;;
16969;SDS011;8601;48.718;8.992;2023-04-24T02:56:39;2.03;;;1.40;;
16969;SDS011;8601;48.718;8.992;2023-04-24T02:59:06;1.43;;;1.30;;
16969;SDS011;8601;48.718;8.992;2023-04-24T03:01:32;3.00;;;1.70;;
16969;SDS011;8601;48.718;8.992;2023-04-24T03:03:59;2.73;;;1.40;;
16969;SDS011;8601;48.718;8.992;2023-04-24T03:06:27;2.17;;;1.20;;
16969;SDS011;8601;48.718;8.992;2023-04-24T03:08:57;2.90;;;1.47;;
16969;SDS011;8601;48.718;8.992;2023-04-24T03:11:24;2.23;;;1.40;;
16969;SDS011;8601;48.718;8.992;2023-04-24T03:13:51;1.70;;;1.47;;
16969;SDS011;8601;48.718;8.992;2023-04-24T03:16:18;2.20;;;1.47;;
16969;SDS011;8601;48.718;8.992;2023-04-24T03:18:45;2.27;;;1.40;;
16969;SDS011;8601;48.718;8.992;2023-04-24T03:21:12;1.90;;;1.10;;
16969;SDS011;8601;48.718;8.992;2023-04-24T03:23:40;2.00;;;1.40;;
16969;SDS011;8601;48.718;8.992;2023-04-24T03:26:07;3.60;;;1.40;;
16969;SDS011;8601;48.718;8.992;2023-04-24T03:28:34;2.10;;;1.27;;
16969;SDS011;8601;48.718;8.992;2023-04-24T03:31:00;1.70;;;1.60;;
16969;SDS011;8601;48.718;8.992;2023-04-24T03:33:28;1.67;;;1.30;;
16969;SDS011;8601;48.718;8.992;2023-04-24T03:35:55;1.40;;;1.30;;
16969;SDS011;8601;48.718;8.992;2023-04-24T03:38:24;2.37;;;1.87;;
16969;SDS011;8601;48.718;8.992;2023-04-24T03:40:52;2.87;;;1.40;;
16969;SDS011;8601;48.718;8.992;2023-04-24T03:43:20;1.73;;;1.33;;
16969;SDS011;8601;48.718;8.992;2023-04-24T03:45:47;2.20;;;1.40;;
16969;SDS011;8601;48.718;8.992;2023-04-24T03:48:14;1.67;;;1.53;;
16969;SDS011;8601;48.718;8.992;2023-04-24T03:50:41;2.27;;;1.77;;
16969;SDS011;8601;48.718;8.992;2023-04-24T03:53:08;2.43;;;1.33;;
16969;SDS011;8601;48.718;8.992;2023-04-24T03:55:35;2.60;;;1.50;;
16969;SDS011;8601;48.718;8.992;2023-04-24T03:58:03;2.07;;;1.40;;
16969;SDS011;8601;48.718;8.992;2023-04-24T04:00:31;3.60;;;1.40;;
16969;SDS011;8601;48.718;8.992;2023-04-24T04:02:58;2.23;;;1.30;;
16969;SDS011;8601;48.718;8.992;2023-04-24T04:05:25;1.47;;;1.27;;
16969;SDS011;8601;48.718;8.992;2023-04-24T04:07:52;1.57;;;1.30;;
16969;SDS011;8601;48.718;8.992;2023-04-24T04:10:19;4.30;;;1.27;;
16969;SDS011;8601;48.718;8.992;2023-04-24T04:12:46;1.47;;;1.37;;
16969;SDS011;8601;48.718;8.992;2023-04-24T04:15:14;1.60;;;1.27;;
16969;SDS011;8601;48.718;8.992;2023-04-24T04:17:42;3.00;;;1.43;;
16969;SDS011;8601;48.718;8.992;2023-04-24T04:20:09;2.30;;;1.60;;
16969;SDS011;8601;48.718;8.992;2023-04-24T04:22:36;2.33;;;1.40;;
16969;SDS011;8601;48.718;8.992;2023-04-24T04:25:03;2.00;;;1.40;;
16969;SDS011;8601;48.718;8.992;2023-04-24T04:27:31;3.00;;;1.43;;
16969;SDS011;8601;48.718;8.992;2023-04-24T04:29:58;1.67;;;1.50;;
16969;SDS011;8601;48.718;8.992;2023-04-24T04:32:27;1.97;;;1.77;;
16969;SDS011;8601;48.718;8.992;2023-04-24T04:34:54;1.87;;;1.77;;
16969;SDS011;8601;48.718;8.992;2023-04-24T04:37:23;1.93;;;1.83;;
16969;SDS011;8601;48.718;8.992;2023-04-24T04:39:51;3.57;;;1.90;;
16969;SDS011;8601;48.718;8.992;2023-04-24T04:42:18;2.00;;;1.90;;
16969;SDS011;8601;48.718;8.992;2023-04-24T04:44:45;2.00;;;1.60;;
16969;SDS011;8601;48.718;8.992;2023-04-24T04:47:14;1.80;;;1.70;;
16969;SDS011;8601;48.718;8.992;2023-04-24T04:49:43;2.10;;;1.90;;
16969;SDS011;8601;48.718;8.992;2023-04-24T04:52:10;2.07;;;1.97;;
16969;SDS011;8601;48.718;8.992;2023-04-24T04:54:37;1.80;;;1.70;;
16969;SDS011;8601;48.718;8.992;2023-04-24T04:57:04;2.37;;;1.80;;
16969;SDS011;8601;48.718;8.992;2023-04-24T04:59:31;1.80;;;1.70;;
16969;SDS011;8601;48.718;8.992;2023-04-24T05:01:58;1.97;;;1.80;;
16969;SDS011;8601;48.718;8.992;2023-04-24T05:04:25;1.80;;;1.70;;
16969;SDS011;8601;48.718;8.992;2023-04-24T05:06:53;1.57;;;1.47;;
16969;SDS011;8601;48.718;8.992;2023-04-24T05:09:21;1.70;;;1.60;;
16969;SDS011;8601;48.718;8.992;2023-04-24T05:11:48;2.67;;;2.10;;
16969;SDS011;8601;48.718;8.992;2023-04-24T05:14:15;1.63;;;1.53;;
16969;SDS011;8601;48.718;8.992;2023-04-24T05:16:42;2.23;;;2.00;;
16969;SDS011;8601;48.718;8.992;2023-04-24T05:19:09;2.17;;;1.97;;
16969;SDS011;8601;48.718;8.992;2023-04-24T05:21:37;2.13;;;1.87;;
16969;SDS011;8601;48.718;8.992;2023-04-24T05:24:05;2.03;;;1.93;;
16969;SDS011;8601;48.718;8.992;2023-04-24T05:26:32;2.17;;;2.00;;
16969;SDS011;8601;48.718;8.992;2023-04-24T05:29:00;2.00;;;1.90;;
16969;SDS011;8601;48.718;8.992;2023-04-24T05:31:27;2.57;;;2.07;;
16969;SDS011;8601;48.718;8.992;2023-04-24T05:33:54;3.10;;;1.93;;
16969;SDS011;8601;48.718;8.992;2023-04-24T05:36:21;2.13;;;1.90;;
16969;SDS011;8601;48.718;8.992;2023-04-24T05:38:48;2.47;;;2.27;;
16969;SDS011;8601;48.718;8.992;2023-04-24T05:41:16;4.00;;;2.00;;
16969;SDS011;8601;48.718;8.992;2023-04-24T05:43:43;2.30;;;2.10;;
16969;SDS011;8601;48.718;8.992;2023-04-24T05:46:11;2.30;;;2.10;;
16969;SDS011;8601;48.718;8.992;2023-04-24T05:48:38;2.10;;;1.90;;
16969;SDS011;8601;48.718;8.992;2023-04-24T05:51:05;2.30;;;2.10;;
16969;SDS011;8601;48.718;8.992;2023-04-24T05:53:32;2.77;;;2.50;;
16969;SDS011;8601;48.718;8.992;2023-04-24T05:56:06;2.47;;;2.37;;
16969;SDS011;8601;48.718;8.992;2023-04-24T05:58:35;2.27;;;2.13;;
16969;SDS011;8601;48.718;8.992;2023-04-24T06:01:02;3.00;;;2.70;;
16969;SDS011;8601;48.718;8.992;2023-04-24T06:03:29;2.37;;;2.17;;
16969;SDS011;8601;48.718;8.992;2023-04-24T06:05:57;3.03;;;2.40;;
16969;SDS011;8601;48.718;8.992;2023-04-24T06:08:24;2.77;;;2.00;;
16969;SDS011;8601;48.718;8.992;2023-04-24T06:10:51;2.67;;;2.47;;
16969;SDS011;8601;48.718;8.992;2023-04-24T06:13:18;3.00;;;2.70;;
16969;SDS011;8601;48.718;8.992;2023-04-24T06:15:47;2.50;;;2.30;;
16969;SDS011;8601;48.718;8.992;2023-04-24T06:18:14;3.50;;;2.43;;
16969;SDS011;8601;48.718;8.992;2023-04-24T06:20:40;3.00;;;2.30;;
16969;SDS011;8601;48.718;8.992;2023-04-24T06:23:08;2.30;;;2.10;;
16969;SDS011;8601;48.718;8.992;2023-04-24T06:25:37;2.67;;;2.47;;
16969;SDS011;8601;48.718;8.992;2023-04-24T06:28:05;2.50;;;2.30;;
16969;SDS011;8601;48.718;8.992;2023-04-24T06:30:31;2.60;;;2.40;;
16969;SDS011;8601;48.718;8.992;2023-04-24T06:33:00;2.60;;;2.40;;
16969;SDS011;8601;48.718;8.992;2023-04-24T06:35:27;2.43;;;2.23;;
16969;SDS011;8601;48.718;8.992;2023-04-24T06:37:54;2.23;;;2.10;;
16969;SDS011;8601;48.718;8.992;2023-04-24T06:40:21;2.40;;;2.20;;
16969;SDS011;8601;48.718;8.992;2023-04-24T06:42:48;2.33;;;2.13;;
16969;SDS011;8601;48.718;8.992;2023-04-24T06:45:15;2.50;;;2.30;;
16969;SDS011;8601;48.718;8.992;2023-04-24T06:47:42;2.70;;;2.50;;
16969;SDS011;8601;48.718;8.992;2023-04-24T06:50:10;2.10;;;2.00;;
16969;SDS011;8601;48.718;8.992;2023-04-24T06:52:37;2.40;;;2.20;;
16969;SDS011;8601;48.718;8.992;2023-04-24T06:55:04;2.40;;;2.30;;
16969;SDS011;8601;48.718;8.992;2023-04-24T06:57:32;3.67;;;2.37;;
16969;SDS011;8601;48.718;8.992;2023-04-24T06:59:59;3.53;;;2.30;;
16969;SDS011;8601;48.718;8.992;2023-04-24T07:02:26;2.73;;;2.53;;
16969;SDS011;8601;48.718;8.992;2023-04-24T07:04:53;2.40;;;2.20;;
16969;SDS011;8601;48.718;8.992;2023-04-24T07:07:25;2.17;;;1.93;;
16969;SDS011;8601;48.718;8.992;2023-04-24T07:09:52;1.97;;;1.87;;
16969;SDS011;8601;48.718;8.992;2023-04-24T07:12:21;2.87;;;1.77;;
16969;SDS011;8601;48.718;8.992;2023-04-24T07:14:48;3.20;;;2.30;;
16969;SDS011;8601;48.718;8.992;2023-04-24T07:17:16;2.03;;;1.93;;
16969;SDS011;8601;48.718;8.992;2023-04-24T07:19:43;2.67;;;2.00;;
16969;SDS011;8601;48.718;8.992;2023-04-24T07:22:10;2.83;;;2.10;;
16969;SDS011;8601;48.718;8.992;2023-04-24T07:24:43;2.10;;;1.97;;
16969;SDS011;8601;48.718;8.992;2023-04-24T07:27:10;2.30;;;1.90;;
16969;SDS011;8601;48.718;8.992;2023-04-24T07:29:37;2.47;;;1.87;;
16969;SDS011;8601;48.718;8.992;2023-04-24T07:32:05;3.77;;;2.17;;
16969;SDS011;8601;48.718;8.992;2023-04-24T07:34:32;3.73;;;2.00;;
16969;SDS011;8601;48.718;8.992;2023-04-24T07:36:59;2.20;;;2.00;;
16969;SDS011;8601;48.718;8.992;2023-04-24T07:39:26;2.07;;;1.87;;
16969;SDS011;8601;48.718;8.992;2023-04-24T07:41:55;2.70;;;1.93;;
16969;SDS011;8601;48.718;8.992;2023-04-24T07:44:23;2.43;;;1.93;;
16969;SDS011;8601;48.718;8.992;2023-04-24T07:46:50;2.63;;;2.10;;
16969;SDS011;8601;48.718;8.992;2023-04-24T07:49:17;5.83;;;2.80;;
16969;SDS011;8601;48.718;8.992;2023-04-24T07:51:44;1.80;;;1.70;;
16969;SDS011;8601;48.718;8.992;2023-04-24T07:54:11;3.53;;;2.10;;
16969;SDS011;8601;48.718;8.992;2023-04-24T07:56:38;5.60;;;2.00;;
16969;SDS011;8601;48.718;8.992;2023-04-24T07:59:09;1.80;;;1.70;;
16969;SDS011;8601;48.718;8.992;2023-04-24T08:01:36;2.33;;;1.70;;
16969;SDS011;8601;48.718;8.992;2023-04-24T08:04:03;1.87;;;1.73;;
16969;SDS011;8601;48.718;8.992;2023-04-24T08:06:30;2.63;;;2.13;;
16969;SDS011;8601;48.718;8.992;2023-04-24T08:08:57;1.87;;;1.73;;
16969;SDS011;8601;48.718;8.992;2023-04-24T08:11:24;2.40;;;2.03;;
16969;SDS011;8601;48.718;8.992;2023-04-24T08:13:51;3.77;;;1.80;;
16969;SDS011;8601;48.718;8.992;2023-04-24T08:16:20;2.17;;;1.50;;
16969;SDS011;8601;48.718;8.992;2023-04-24T08:18:48;1.80;;;1.63;;
16969;SDS011;8601;48.718;8.992;2023-04-24T08:21:15;3.43;;;1.77;;
16969;SDS011;8601;48.718;8.992;2023-04-24T08:23:43;3.00;;;1.67;;
16969;SDS011;8601;48.718;8.992;2023-04-24T08:26:10;2.97;;;1.60;;
16969;SDS011;8601;48.718;8.992;2023-04-24T08:28:37;2.20;;;2.00;;
16969;SDS011;8601;48.718;8.992;2023-04-24T08:31:05;1.90;;;1.80;;
16969;SDS011;8601;48.718;8.992;2023-04-24T08:33:33;3.17;;;2.00;;
16969;SDS011;8601;48.718;8.992;2023-04-24T08:36:01;2.00;;;1.53;;
16969;SDS011;8601;48.718;8.992;2023-04-24T08:38:28;3.47;;;1.77;;
16969;SDS011;8601;48.718;8.992;2023-04-24T08:40:58;2.13;;;2.03;;
16969;SDS011;8601;48.718;8.992;2023-04-24T08:43:26;2.20;;;1.90;;
16969;SDS011;8601;48.718;8.992;2023-04-24T08:45:55;2.73;;;1.53;;
16969;SDS011;8601;48.718;8.992;2023-04-24T08:48:22;2.13;;;2.00;;
16969;SDS011;8601;48.718;8.992;2023-04-24T08:50:51;3.30;;;2.13;;
16969;SDS011;8601;48.718;8.992;2023-04-24T08:53:18;1.53;;;1.40;;
16969;SDS011;8601;48.718;8.992;2023-04-24T08:55:46;2.77;;;2.07;;
16969;SDS011;8601;48.718;8.992;2023-04-24T08:58:15;2.67;;;2.00;;
16969;SDS011;8601;48.718;8.992;2023-04-24T09:00:43;1.90;;;1.70;;
16969;SDS011;8601;48.718;8.992;2023-04-24T09:03:17;2.17;;;1.97;;
16969;SDS011;8601;48.718;8.992;2023-04-24T09:05:46;2.40;;;2.13;;
16969;SDS011;8601;48.718;8.992;2023-04-24T09:08:17;2.80;;;1.93;;
16969;SDS011;8601;48.718;8.992;2023-04-24T09:10:46;3.03;;;2.33;;
16969;SDS011;8601;48.718;8.992;2023-04-24T09:13:13;6.83;;;2.30;;
16969;SDS011;8601;48.718;8.992;2023-04-24T09:15:42;2.10;;;1.90;;
16969;SDS011;8601;48.718;8.992;2023-04-24T09:18:09;1.63;;;1.53;;
16969;SDS011;8601;48.718;8.992;2023-04-24T09:23:28;2.03;;;1.60;;
16969;SDS011;8601;48.718;8.992;2023-04-24T09:25:56;1.60;;;1.50;;
16969;SDS011;8601;48.718;8.992;2023-04-24T09:28:25;3.40;;;1.30;;
16969;SDS011;8601;48.718;8.992;2023-04-24T09:31:01;1.57;;;1.43;;
16969;SDS011;8601;48.718;8.992;2023-04-24T09:33:29;2.60;;;1.67;;
16969;SDS011;8601;48.718;8.992;2023-04-24T09:35:56;2.33;;;1.83;;
16969;SDS011;8601;48.718;8.992;2023-04-24T09:38:31;1.50;;;1.40;;
16969;SDS011;8601;48.718;8.992;2023-04-24T09:40:59;1.77;;;1.67;;
16969;SDS011;8601;48.718;8.992;2023-04-24T09:43:28;2.53;;;1.50;;
16969;SDS011;8601;48.718;8.992;2023-04-24T09:45:55;1.50;;;1.33;;
16969;SDS011;8601;48.718;8.992;2023-04-24T09:48:35;2.70;;;1.60;;
16969;SDS011;8601;48.718;8.992;2023-04-24T09:51:04;2.07;;;1.40;;
16969;SDS011;8601;48.718;8.992;2023-04-24T09:53:33;1.40;;;1.30;;
16969;SDS011;8601;48.718;8.992;2023-04-24T09:56:06;2.40;;;1.50;;
16969;SDS011;8601;48.718;8.992;2023-04-24T09:58:35;1.77;;;1.40;;
16969;SDS011;8601;48.718;8.992;2023-04-24T10:01:02;3.13;;;1.30;;
16969;SDS011;8601;48.718;8.992;2023-04-24T10:03:30;2.67;;;1.30;;
16969;SDS011;8601;48.718;8.992;2023-04-24T10:05:58;1.87;;;1.47;;
16969;SDS011;8601;48.718;8.992;2023-04-24T10:08:25;2.17;;;1.60;;
16969;SDS011;8601;48.718;8.992;2023-04-24T10:11:00;2.17;;;1.43;;
16969;SDS011;8601;48.718;8.992;2023-04-24T10:13:28;2.03;;;1.73;;
16969;SDS011;8601;48.718;8.992;2023-04-24T10:15:56;2.57;;;1.33;;
16969;SDS011;8601;48.718;8.992;2023-04-24T10:18:25;2.90;;;1.50;;
16969;SDS011;8601;48.718;8.992;2023-04-24T10:20:53;2.03;;;1.63;;
16969;SDS011;8601;48.718;8.992;2023-04-24T10:23:22;1.30;;;1.20;;
16969;SDS011;8601;48.718;8.992;2023-04-24T10:25:51;1.53;;;1.40;;
16969;SDS011;8601;48.718;8.992;2023-04-24T10:28:21;1.80;;;1.33;;
16969;SDS011;8601;48.718;8.992;2023-04-24T10:30:51;2.17;;;1.27;;
16969;SDS011;8601;48.718;8.992;2023-04-24T10:33:20;1.60;;;1.50;;
16969;SDS011;8601;48.718;8.992;2023-04-24T10:35:48;1.67;;;1.47;;
16969;SDS011;8601;48.718;8.992;2023-04-24T10:38:18;1.30;;;1.20;;
16969;SDS011;8601;48.718;8.992;2023-04-24T10:40:50;1.60;;;1.20;;
16969;SDS011;8601;48.718;8.992;2023-04-24T10:43:17;2.70;;;1.40;;
16969;SDS011;8601;48.718;8.992;2023-04-24T10:48:54;2.23;;;1.67;;
16969;SDS011;8601;48.718;8.992;2023-04-24T10:51:21;2.30;;;2.13;;
16969;SDS011;8601;48.718;8.992;2023-04-24T10:53:49;1.97;;;1.40;;
16969;SDS011;8601;48.718;8.992;2023-04-24T10:56:17;1.27;;;1.20;;
16969;SDS011;8601;48.718;8.992;2023-04-24T10:58:45;1.80;;;1.70;;
16969;SDS011;8601;48.718;8.992;2023-04-24T11:01:23;3.27;;;1.60;;
16969;SDS011;8601;48.718;8.992;2023-04-24T11:03:55;1.70;;;1.60;;
16969;SDS011;8601;48.718;8.992;2023-04-24T11:06:30;1.77;;;1.67;;
16969;SDS011;8601;48.718;8.992;2023-04-24T11:09:02;2.60;;;1.73;;
16969;SDS011;8601;48.718;8.992;2023-04-24T11:11:31;1.77;;;1.67;;
16969;SDS011;8601;48.718;8.992;2023-04-24T11:14:02;1.87;;;1.70;;
16969;SDS011;8601;48.718;8.992;2023-04-24T11:16:31;1.90;;;1.70;;
16969;SDS011;8601;48.718;8.992;2023-04-24T11:19:03;4.03;;;1.90;;
16969;SDS011;8601;48.718;8.992;2023-04-24T11:21:36;1.63;;;1.53;;
16969;SDS011;8601;48.718;8.992;2023-04-24T11:27:06;1.50;;;1.40;;
16969;SDS011;8601;48.718;8.992;2023-04-24T11:29:40;1.60;;;1.27;;
16969;SDS011;8601;48.718;8.992;2023-04-24T11:32:15;1.40;;;1.23;;
16969;SDS011;8601;48.718;8.992;2023-04-24T11:34:46;1.77;;;1.40;;
16969;SDS011;8601;48.718;8.992;2023-04-24T11:37:14;1.63;;;1.50;;
16969;SDS011;8601;48.718;8.992;2023-04-24T11:39:43;1.83;;;1.50;;
16969;SDS011;8601;48.718;8.992;2023-04-24T11:42:10;1.90;;;1.70;;
16969;SDS011;8601;48.718;8.992;2023-04-24T11:44:40;1.83;;;1.70;;
16969;SDS011;8601;48.718;8.992;2023-04-24T11:47:08;2.00;;;1.80;;
16969;SDS011;8601;48.718;8.992;2023-04-24T11:49:36;1.57;;;1.47;;
16969;SDS011;8601;48.718;8.992;2023-04-24T11:52:04;1.80;;;1.70;;
16969;SDS011;8601;48.718;8.992;2023-04-24T11:54:31;1.87;;;1.73;;
16969;SDS011;8601;48.718;8.992;2023-04-24T11:56:58;2.03;;;1.50;;
16969;SDS011;8601;48.718;8.992;2023-04-24T11:59:25;1.70;;;1.60;;
16969;SDS011;8601;48.718;8.992;2023-04-24T12:01:52;1.67;;;1.57;;
16969;SDS011;8601;48.718;8.992;2023-04-24T12:04:19;2.07;;;1.87;;
16969;SDS011;8601;48.718;8.992;2023-04-24T12:06:58;1.60;;;1.50;;
16969;SDS011;8601;48.718;8.992;2023-04-24T12:09:27;2.30;;;2.10;;
16969;SDS011;8601;48.718;8.992;2023-04-24T12:11:54;2.33;;;1.83;;
16969;SDS011;8601;48.718;8.992;2023-04-24T12:14:22;1.97;;;1.87;;
16969;SDS011;8601;48.718;8.992;2023-04-24T12:16:49;1.53;;;1.43;;
16969;SDS011;8601;48.718;8.992;2023-04-24T12:19:17;2.60;;;1.90;;
16969;SDS011;8601;48.718;8.992;2023-04-24T12:21:58;2.40;;;2.20;;
16969;SDS011;8601;48.718;8.992;2023-04-24T12:24:25;2.30;;;2.10;;
16969;SDS011;8601;48.718;8.992;2023-04-24T12:26:55;1.80;;;1.70;;
16969;SDS011;8601;48.718;8.992;2023-04-24T12:29:23;4.20;;;1.70;;
16969;SDS011;8601;48.718;8.992;2023-04-24T12:31:50;1.67;;;1.57;;
16969;SDS011;8601;48.718;8.992;2023-04-24T12:34:18;2.50;;;1.90;;
16969;SDS011;8601;48.718;8.992;2023-04-24T12:36:45;1.77;;;1.67;;
16969;SDS011;8601;48.718;8.992;2023-04-24T12:39:17;2.63;;;1.63;;
16969;SDS011;8601;48.718;8.992;2023-04-24T12:41:55;2.23;;;1.40;;
16969;SDS011;8601;48.718;8.992;2023-04-24T12:44:29;2.23;;;1.70;;
16969;SDS011;8601;48.718;8.992;2023-04-24T12:46:59;1.93;;;1.50;;
16969;SDS011;8601;48.718;8.992;2023-04-24T12:49:26;1.33;;;1.23;;
16969;SDS011;8601;48.718;8.992;2023-04-24T12:51:53;3.53;;;1.50;;
16969;SDS011;8601;48.718;8.992;2023-04-24T12:54:20;1.60;;;1.50;;
16969;SDS011;8601;48.718;8.992;2023-04-24T12:56:47;1.50;;;1.40;;
16969;SDS011;8601;48.718;8.992;2023-04-24T12:59:16;2.23;;;2.03;;
16969;SDS011;8601;48.718;8.992;2023-04-24T13:01:43;1.90;;;1.80;;
16969;SDS011;8601;48.718;8.992;2023-04-24T13:04:10;1.90;;;1.80;;
16969;SDS011;8601;48.718;8.992;2023-04-24T13:06:37;2.00;;;1.90;;
16969;SDS011;8601;48.718;8.992;2023-04-24T13:09:04;1.67;;;1.57;;
16969;SDS011;8601;48.718;8.992;2023-04-24T13:11:31;1.93;;;1.57;;
16969;SDS011;8601;48.718;8.992;2023-04-24T13:13:58;2.20;;;1.70;;
16969;SDS011;8601;48.718;8.992;2023-04-24T13:16:26;2.27;;;1.50;;
16969;SDS011;8601;48.718;8.992;2023-04-24T13:18:53;1.83;;;1.50;;
16969;SDS011;8601;48.718;8.992;2023-04-24T13:21:20;2.30;;;2.03;;
16969;SDS011;8601;48.718;8.992;2023-04-24T13:23:47;2.17;;;1.60;;
16969;SDS011;8601;48.718;8.992;2023-04-24T13:26:14;1.73;;;1.63;;
16969;SDS011;8601;48.718;8.992;2023-04-24T13:28:41;2.40;;;1.80;;
16969;SDS011;8601;48.718;8.992;2023-04-24T13:31:08;1.67;;;1.57;;
16969;SDS011;8601;48.718;8.992;2023-04-24T13:33:37;1.93;;;1.80;;
16969;SDS011;8601;48.718;8.992;2023-04-24T13:36:04;1.90;;;1.80;;
16969;SDS011;8601;48.718;8.992;2023-04-24T13:38:33;4.23;;;2.23;;
16969;SDS011;8601;48.718;8.992;2023-04-24T13:41:00;2.60;;;2.10;;
16969;SDS011;8601;48.718;8.992;2023-04-24T13:43:28;2.20;;;2.00;;
16969;SDS011;8601;48.718;8.992;2023-04-24T13:45:54;2.23;;;2.10;;
16969;SDS011;8601;48.718;8.992;2023-04-24T13:48:21;3.93;;;1.83;;
16969;SDS011;8601;48.718;8.992;2023-04-24T13:50:50;2.10;;;2.00;;
16969;SDS011;8601;48.718;8.992;2023-04-24T13:53:17;1.97;;;1.80;;
16969;SDS011;8601;48.718;8.992;2023-04-24T13:55:44;2.37;;;2.00;;
16969;SDS011;8601;48.718;8.992;2023-04-24T13:58:11;2.60;;;2.37;;
16969;SDS011;8601;48.718;8.992;2023-04-24T14:00:38;2.40;;;2.20;;
16969;SDS011;8601;48.718;8.992;2023-04-24T14:03:05;2.73;;;2.20;;
16969;SDS011;8601;48.718;8.992;2023-04-24T14:05:32;4.40;;;1.97;;
16969;SDS011;8601;48.718;8.992;2023-04-24T14:08:00;2.17;;;2.07;;
16969;SDS011;8601;48.718;8.992;2023-04-24T14:10:27;2.10;;;2.00;;
16969;SDS011;8601;48.718;8.992;2023-04-24T14:12:54;2.20;;;2.00;;
16969;SDS011;8601;48.718;8.992;2023-04-24T14:15:21;2.37;;;2.17;;
16969;SDS011;8601;48.718;8.992;2023-04-24T14:17:47;3.00;;;2.80;;
16969;SDS011;8601;48.718;8.992;2023-04-24T14:20:15;3.30;;;2.47;;
16969;SDS011;8601;48.718;8.992;2023-04-24T14:22:41;2.33;;;2.07;;
16969;SDS011;8601;48.718;8.992;2023-04-24T14:25:10;3.27;;;2.43;;
16969;SDS011;8601;48.718;8.992;2023-04-24T14:27:37;2.33;;;2.13;;
16969;SDS011;8601;48.718;8.992;2023-04-24T14:30:05;2.40;;;2.20;;
16969;SDS011;8601;48.718;8.992;2023-04-24T14:32:33;2.90;;;2.47;;
16969;SDS011;8601;48.718;8.992;2023-04-24T14:35:00;2.97;;;2.77;;
16969;SDS011;8601;48.718;8.992;2023-04-24T14:37:27;2.83;;;2.60;;
16969;SDS011;8601;48.718;8.992;2023-04-24T14:39:54;2.57;;;2.37;;
16969;SDS011;8601;48.718;8.992;2023-04-24T14:42:22;2.37;;;2.27;;
16969;SDS011;8601;48.718;8.992;2023-04-24T14:44:50;2.70;;;2.30;;
16969;SDS011;8601;48.718;8.992;2023-04-24T14:47:17;2.13;;;2.00;;
16969;SDS011;8601;48.718;8.992;2023-04-24T14:49:46;3.33;;;2.50;;
16969;SDS011;8601;48.718;8.992;2023-04-24T14:52:13;2.70;;;2.27;;
16969;SDS011;8601;48.718;8.992;2023-04-24T14:54:41;2.50;;;2.30;;
16969;SDS011;8601;48.718;8.992;2023-04-24T14:57:07;2.27;;;2.07;;
16969;SDS011;8601;48.718;8.992;2023-04-24T14:59:36;2.10;;;2.00;;
16969;SDS011;8601;48.718;8.992;2023-04-24T15:02:03;3.57;;;2.13;;
16969;SDS011;8601;48.718;8.992;2023-04-24T15:04:30;1.97;;;1.87;;
16969;SDS011;8601;48.718;8.992;2023-04-24T15:06:56;2.73;;;2.10;;
16969;SDS011;8601;48.718;8.992;2023-04-24T15:09:24;2.60;;;2.33;;
16969;SDS011;8601;48.718;8.992;2023-04-24T15:11:52;3.23;;;2.50;;
16969;SDS011;8601;48.718;8.992;2023-04-24T15:14:19;3.07;;;2.30;;